METAR Data
IDs: Format: Raw Decoded Include TAF

Data at: 1019 UTC 13 Aug 2022

SBMT 131000Z 08006KT 8000 OVC009 12/11 Q1025